Time;durP1;ratioP1;P1;durP2;ratioP2;P2;SDS_P1;SDS_P2;PMS_P1;PMS_P2;Temp;Humidity;BMP_temperature;BMP_pressure;BME280_temperature;BME280_humidity;BME280_pressure;Samples;Min_cycle;Max_cycle;Signal;HPM_P1;HPM_P2
2021/09/23 08:32:17;;;;;;;13.15;9.88;;;;;;;18.25;100.00;101523.94;6307261;22;20019;-72
2021/09/23 08:35:06;;;;;;;10.73;8.90;;;;;;;18.12;98.37;101514.69;6306201;22;20007;-72
2021/09/23 08:37:52;;;;;;;12.05;9.88;;;;;;;18.04;100.00;101507.91;6274636;22;20004;-71
2021/09/23 08:40:39;;;;;;;11.27;9.27;;;;;;;18.27;98.23;101510.63;6276169;22;20011;-72
2021/09/23 08:43:24;;;;;;;12.15;8.88;;;;;;;18.25;97.58;101515.97;6275230;22;20015;-71
2021/09/23 08:46:10;;;;;;;13.70;9.35;;;;;;;18.22;96.94;101512.56;6273849;22;20030;-71
2021/09/23 08:48:57;;;;;;;11.10;9.13;;;;;;;18.30;99.19;101508.75;6275594;22;20007;-71
2021/09/23 08:51:42;;;;;;;11.95;9.70;;;;;;;18.48;95.66;101509.84;6274058;22;20365;-71
2021/09/23 08:54:28;;;;;;;12.45;10.60;;;;;;;17.93;100.00;101510.94;6273452;22;20043;-71
2021/09/23 08:57:14;;;;;;;14.48;11.30;;;;;;;17.23;100.00;101500.09;6276245;22;20007;-70
2021/09/23 09:00:07;;;;;;;22.63;16.98;;;;;;;17.46;100.00;101514.38;6276357;22;20008;-71
2021/09/23 09:03:19;;;;;;;12.23;10.02;;;;;;;17.90;100.00;101504.91;6277652;22;20027;-71
2021/09/23 09:06:08;;;;;;;15.05;11.75;;;;;;;17.87;100.00;101511.19;6278558;22;20069;-71
2021/09/23 09:08:53;;;;;;;12.20;9.48;;;;;;;18.24;100.00;101508.06;6276274;22;20007;-71
2021/09/23 09:11:43;;;;;;;13.40;9.45;;;;;;;17.80;100.00;101511.47;6273726;22;20082;-70
2021/09/23 09:14:30;;;;;;;13.85;10.13;;;;;;;18.28;99.33;101509.69;6274209;22;20357;-71
2021/09/23 09:17:18;;;;;;;13.63;11.13;;;;;;;17.15;100.00;101510.94;6275968;22;20322;-71
2021/09/23 09:20:07;;;;;;;16.38;10.60;;;;;;;17.31;100.00;101511.28;6276316;22;20012;-71
2021/09/23 09:23:04;;;;;;;12.45;9.77;;;;;;;17.71;100.00;101519.69;6276100;22;20409;-71
2021/09/23 09:25:50;;;;;;;12.43;9.77;;;;;;;17.00;100.00;101524.66;6277107;22;20059;-70
2021/09/23 09:28:48;;;;;;;13.10;9.77;;;;;;;17.35;100.00;101519.09;6277780;22;20095;-71
2021/09/23 09:31:36;;;;;;;12.85;9.70;;;;;;;18.39;100.00;101524.34;6275715;22;20019;-71
2021/09/23 09:34:22;;;;;;;13.27;8.80;;;;;;;17.69;100.00;101522.41;6278019;22;20008;-70
2021/09/23 09:37:07;;;;;;;9.68;8.32;;;;;;;18.63;96.41;101517.25;6275707;22;20078;-70
2021/09/23 09:39:56;;;;;;;11.55;9.85;;;;;;;18.36;94.47;101511.19;6275960;22;20011;-71
2021/09/23 09:42:45;;;;;;;16.90;8.73;;;;;;;18.45;96.19;101517.97;6278310;22;20004;-71
2021/09/23 09:45:31;;;;;;;10.52;8.75;;;;;;;17.98;96.97;101516.97;6276003;22;20007;-71
2021/09/23 09:48:28;;;;;;;9.85;8.68;;;;;;;17.78;95.45;101518.56;6277961;22;20011;-71
2021/09/23 09:51:14;;;;;;;10.65;9.40;;;;;;;17.26;100.00;101513.25;6276757;22;20069;-71
2021/09/23 09:54:01;;;;;;;11.27;9.40;;;;;;;17.47;100.00;101508.16;6276040;22;20087;-71
2021/09/23 09:56:56;;;;;;;11.20;9.40;;;;;;;18.01;100.00;101500.94;6275882;22;20065;-70
2021/09/23 09:59:41;;;;;;;9.18;8.20;;;;;;;18.27;87.94;101507.97;6275033;22;20031;-77
2021/09/23 10:02:28;;;;;;;10.10;8.20;;;;;;;18.52;88.72;101506.16;6276247;22;20031;-73
2021/09/23 10:05:16;;;;;;;8.95;7.78;;;;;;;18.88;86.19;101510.94;6277534;22;20015;-70
2021/09/23 10:08:03;;;;;;;10.25;8.43;;;;;;;18.88;85.14;101510.94;6276061;22;20008;-74
2021/09/23 10:10:49;;;;;;;12.07;8.18;;;;;;;18.98;82.02;101509.66;6277336;22;20008;-74
2021/09/23 10:13:36;;;;;;;8.07;7.13;;;;;;;19.16;79.46;101510.72;6269026;22;20425;-76
2021/09/23 10:16:22;;;;;;;9.43;7.28;;;;;;;19.08;78.18;101505.72;6269693;22;20015;-75
2021/09/23 10:19:08;;;;;;;9.88;6.97;;;;;;;18.80;78.17;101506.84;6269544;22;20486;-75
2021/09/23 10:21:54;;;;;;;8.82;6.90;;;;;;;18.48;77.99;101507.19;6271529;22;20015;-75
2021/09/23 10:24:43;;;;;;;9.57;7.32;;;;;;;18.48;78.79;101504.56;6272002;22;20077;-75
2021/09/23 10:30:39;;;;;;;11.93;6.80;;;;;;;19.09;75.95;101506.59;6271008;22;20023;-76
2021/09/23 10:33:26;;;;;;;8.52;6.60;;;;;;;19.55;70.76;101508.25;6271443;22;20011;-77
2021/09/23 10:36:13;;;;;;;8.35;6.50;;;;;;;19.61;70.00;101497.38;6268229;22;20008;-76
2021/09/23 10:39:03;;;;;;;8.35;7.03;;;;;;;20.03;67.36;101493.75;6271167;22;20011;-75
2021/09/23 10:41:50;;;;;;;6.85;6.18;;;;;;;19.51;67.04;101504.00;6270424;22;20036;-76
2021/09/23 10:44:36;;;;;;;7.10;6.40;;;;;;;19.44;68.50;101503.38;6269840;22;20020;-76
2021/09/23 10:47:35;;;;;;;7.00;6.22;;;;;;;19.46;67.09;101503.31;6268939;22;20014;-75
2021/09/23 10:50:27;;;;;;;9.88;6.38;;;;;;;19.96;64.72;101494.94;6270997;22;20187;-76
2021/09/23 10:53:13;;;;;;;6.50;5.90;;;;;;;20.00;65.36;101498.31;6271562;22;20042;-75
2021/09/23 10:56:04;;;;;;;7.35;5.70;;;;;;;20.53;63.89;101503.00;6269993;22;20011;-77
2021/09/23 10:58:51;;;;;;;8.70;7.63;;;;;;;21.11;63.87;101494.03;6270185;22;20022;-78
2021/09/23 11:01:37;;;;;;;9.73;7.20;;;;;;;20.81;64.52;101502.59;6277374;22;20011;-77
2021/09/23 11:04:23;;;;;;;7.47;6.78;;;;;;;20.22;65.92;101496.47;6278075;22;20287;-78
2021/09/23 11:07:08;;;;;;;10.13;6.57;;;;;;;20.71;61.78;101491.50;6273336;22;20014;-77
2021/09/23 11:10:13;;;;;;;7.22;6.53;;;;;;;21.26;61.95;101489.75;6277327;22;20007;-75
2021/09/23 11:12:59;;;;;;;8.95;7.45;;;;;;;21.02;62.03;101488.28;6277676;22;20007;-76
2021/09/23 11:15:45;;;;;;;9.18;6.88;;;;;;;20.73;60.72;101484.28;6276213;22;20012;-77
2021/09/23 11:18:32;;;;;;;9.18;6.93;;;;;;;20.24;62.80;101476.84;6281311;22;20004;-78
2021/09/23 11:21:18;;;;;;;11.00;6.35;;;;;;;20.43;63.04;101477.75;6270271;22;20011;-78
2021/09/23 11:24:04;;;;;;;8.63;6.10;;;;;;;20.10;63.75;101470.41;6271140;22;20011;-79
2021/09/23 11:26:51;;;;;;;8.40;6.47;;;;;;;19.87;63.09;101458.09;6270973;22;20318;-71
2021/09/23 11:29:38;;;;;;;8.60;5.90;;;;;;;20.10;62.98;101467.75;6270978;22;20065;-78
2021/09/23 11:32:23;;;;;;;11.65;5.60;;;;;;;20.85;59.00;101467.72;6275941;22;20045;-78
2021/09/23 11:35:09;;;;;;;7.90;6.20;;;;;;;20.03;61.04;101464.47;6277241;22;20004;-78
2021/09/23 11:37:57;;;;;;;7.43;6.50;;;;;;;20.05;62.13;101467.91;6276471;22;20082;-78
2021/09/23 11:40:43;;;;;;;7.75;6.57;;;;;;;19.84;63.30;101465.34;6275194;22;20008;-78
2021/09/23 11:43:30;;;;;;;8.65;6.20;;;;;;;20.26;62.90;101464.34;6274321;22;20007;-80
2021/09/23 11:46:15;;;;;;;13.10;5.93;;;;;;;20.50;61.95;101459.69;6272738;22;20410;-79
2021/09/23 11:49:03;;;;;;;7.00;6.10;;;;;;;20.46;61.51;101453.66;6277457;22;20008;-79
2021/09/23 11:51:49;;;;;;;8.10;6.28;;;;;;;20.51;58.33;101454.28;6272446;22;20011;-80
2021/09/23 11:54:36;;;;;;;6.20;5.60;;;;;;;21.11;59.15;101448.75;6272395;22;20019;-79
2021/09/23 11:57:26;;;;;;;8.13;5.97;;;;;;;21.01;58.02;101438.59;6275802;22;20094;-78
2021/09/23 12:00:12;;;;;;;7.43;5.60;;;;;;;21.80;56.64;101431.84;6281175;22;20004;-78
2021/09/23 12:02:58;;;;;;;6.43;5.65;;;;;;;21.07;56.05;101436.50;6283381;22;20064;-79
2021/09/23 12:05:45;;;;;;;6.97;6.07;;;;;;;20.91;56.20;101432.84;6271588;22;20086;-78
2021/09/23 12:08:31;;;;;;;9.70;5.80;;;;;;;20.68;57.57;101442.84;6272303;22;20414;-77
2021/09/23 12:11:17;;;;;;;7.68;5.95;;;;;;;20.64;57.76;101441.25;6273428;22;20073;-79
2021/09/23 12:14:07;;;;;;;6.00;5.40;;;;;;;20.21;57.98;101437.06;6274423;22;20365;-77
2021/09/23 12:17:07;;;;;;;10.35;6.05;;;;;;;19.21;62.45;101437.03;6273057;22;20012;-76
2021/09/23 12:19:54;;;;;;;6.35;5.35;;;;;;;19.82;61.83;101433.50;6270121;22;20007;-76
2021/09/23 12:22:40;;;;;;;6.18;5.57;;;;;;;19.79;59.37;101427.44;6272126;22;20011;-78
2021/09/23 12:25:26;;;;;;;7.20;5.50;;;;;;;19.65;59.26;101430.69;6269314;22;20022;-76
2021/09/23 12:28:14;;;;;;;5.80;5.20;;;;;;;19.59;58.95;101430.97;6271175;22;20078;-73
2021/09/23 12:31:05;;;;;;;6.45;5.47;;;;;;;19.63;60.29;101432.56;6268720;22;20031;-75
2021/09/23 12:33:56;;;;;;;8.20;5.45;;;;;;;19.71;60.65;101427.78;6273997;22;20008;-72
2021/09/23 12:36:57;;;;;;;9.20;5.32;;;;;;;19.45;62.10;101435.16;6274393;22;20306;-73
2021/09/23 12:39:45;;;;;;;6.25;5.47;;;;;;;20.04;59.98;101426.28;6275235;22;20014;-74
2021/09/23 12:42:34;;;;;;;6.72;4.95;;;;;;;20.26;57.86;101437.75;6276761;22;20294;-74
2021/09/23 12:45:20;;;;;;;5.70;4.75;;;;;;;20.38;57.31;101428.31;6276210;22;20436;-74
2021/09/23 12:48:15;;;;;;;8.80;5.13;;;;;;;20.72;55.59;101428.44;6274495;22;20003;-74
2021/09/23 12:51:00;;;;;;;9.20;5.07;;;;;;;20.69;55.07;101439.25;6275386;22;20095;-74
2021/09/23 12:53:46;;;;;;;6.25;4.97;;;;;;;20.70;56.05;101438.31;6276204;22;20379;-76
2021/09/23 12:56:32;;;;;;;7.45;4.82;;;;;;;20.33;55.59;101436.50;6275650;22;20003;-75
2021/09/23 12:59:22;;;;;;;6.95;4.72;;;;;;;20.53;54.22;101438.25;6276008;22;20334;-75
2021/09/23 13:02:10;;;;;;;6.15;4.90;;;;;;;20.60;54.33;101440.53;6278861;22;20026;-75
2021/09/23 13:05:19;;;;;;;12.60;9.45;;;;;;;20.60;55.41;101437.88;6278086;22;20007;-75
2021/09/23 13:08:10;;;;;;;6.05;5.40;;;;;;;20.76;53.56;101438.88;6276457;22;20018;-74
2021/09/23 13:11:22;;;;;;;6.45;5.30;;;;;;;21.20;52.37;101426.94;6275491;22;20351;-75
2021/09/23 13:14:21;;;;;;;7.35;5.18;;;;;;;20.77;53.06;101431.75;6279506;22;20077;-73
2021/09/23 13:17:23;;;;;;;5.97;5.18;;;;;;;20.37;54.01;101430.09;6275158;22;20019;-74
2021/09/23 13:20:09;;;;;;;8.32;5.00;;;;;;;20.57;53.36;101429.19;6270420;22;20096;-74
2021/09/23 13:22:56;;;;;;;5.68;4.60;;;;;;;20.28;54.38;101441.19;6270016;22;20011;-74
2021/09/23 13:25:42;;;;;;;5.28;4.50;;;;;;;20.55;54.69;101447.00;6269913;22;20012;-75
2021/09/23 13:28:41;;;;;;;5.20;4.70;;;;;;;20.26;53.70;101443.06;6270006;22;20438;-74
2021/09/23 13:31:27;;;;;;;9.07;6.32;;;;;;;20.13;53.03;101444.53;6271436;22;20016;-75
2021/09/23 13:34:12;;;;;;;7.45;4.63;;;;;;;20.26;51.88;101442.19;6269140;22;20099;-80
2021/09/23 13:36:58;;;;;;;7.20;4.90;;;;;;;20.19;51.59;101443.38;6271889;22;20050;-79
2021/09/23 13:39:45;;;;;;;7.25;4.68;;;;;;;19.99;52.57;101436.28;6272180;22;20023;-80
2021/09/23 13:42:31;;;;;;;5.13;4.43;;;;;;;19.71;53.13;101434.88;6270647;22;20064;-79
2021/09/23 13:45:17;;;;;;;8.43;4.97;;;;;;;19.76;55.35;101435.56;6273659;22;20008;-80
2021/09/23 13:48:04;;;;;;;5.95;4.78;;;;;;;20.26;53.36;101434.19;6270665;22;20011;-74
2021/09/23 13:50:49;;;;;;;4.85;4.35;;;;;;;20.23;52.60;101434.34;6271628;22;20004;-75
2021/09/23 13:53:35;;;;;;;6.57;4.45;;;;;;;20.08;52.84;101424.34;6269027;22;20011;-72
2021/09/23 13:56:23;;;;;;;7.57;4.70;;;;;;;20.63;51.89;101421.78;6272688;22;20011;-76
2021/09/23 13:59:09;;;;;;;7.35;4.53;;;;;;;20.21;52.16;101434.41;6269680;22;20046;-75
2021/09/23 14:01:54;;;;;;;4.97;4.13;;;;;;;20.24;51.66;101430.72;6271612;22;20310;-75
2021/09/23 14:04:40;;;;;;;8.52;4.63;;;;;;;20.24;51.62;101436.94;6269573;22;20073;-76
2021/09/23 14:07:26;;;;;;;9.25;5.93;;;;;;;19.27;52.20;101430.59;6269636;22;20008;-75
2021/09/23 14:10:13;;;;;;;5.13;4.53;;;;;;;19.94;51.53;101422.31;6271867;22;20081;-75
2021/09/23 14:12:59;;;;;;;7.60;5.72;;;;;;;20.08;50.91;101429.66;6268165;22;20023;-76
2021/09/23 14:15:44;;;;;;;8.75;6.25;;;;;;;19.82;51.98;101430.84;6271899;22;20019;-76
2021/09/23 14:18:30;;;;;;;7.97;5.35;;;;;;;19.83;51.21;101439.66;6272168;22;20031;-76
2021/09/23 14:21:17;;;;;;;9.07;6.82;;;;;;;19.72;52.56;101437.47;6270505;22;20091;-75
2021/09/23 14:24:04;;;;;;;6.03;4.68;;;;;;;19.95;51.83;101440.00;6275435;22;20003;-75
2021/09/23 14:26:50;;;;;;;9.65;4.70;;;;;;;19.93;52.89;101446.34;6278216;22;20295;-76
2021/09/23 14:29:41;;;;;;;7.28;4.75;;;;;;;19.75;54.49;101445.34;6276302;22;20008;-76
2021/09/23 14:32:28;;;;;;;6.70;5.30;;;;;;;19.89;54.48;101445.59;6276410;22;20165;-76
2021/09/23 14:35:14;;;;;;;7.13;4.90;;;;;;;19.65;55.03;101454.63;6277342;22;20023;-76
2021/09/23 14:37:59;;;;;;;6.32;5.10;;;;;;;19.57;55.17;101456.75;6278003;22;20008;-75
2021/09/23 14:40:46;;;;;;;6.00;4.90;;;;;;;19.37;55.00;101447.91;6276822;22;20008;-77
2021/09/23 14:43:32;;;;;;;11.00;4.88;;;;;;;19.40;56.31;101461.91;6276523;22;20007;-76
2021/09/23 14:46:18;;;;;;;8.90;6.13;;;;;;;19.47;55.26;101457.19;6256977;22;20083;-75
2021/09/23 14:49:04;;;;;;;10.07;7.07;;;;;;;19.57;55.24;101456.75;6275776;22;20014;-75
2021/09/23 14:51:50;;;;;;;6.85;5.40;;;;;;;19.37;55.58;101462.03;6275425;22;20004;-76
2021/09/23 14:54:36;;;;;;;5.45;4.47;;;;;;;19.60;55.37;101463.75;6276316;22;20003;-77
2021/09/23 14:57:22;;;;;;;6.13;4.75;;;;;;;19.83;55.44;101455.63;6275700;22;20450;-75
2021/09/23 15:00:09;;;;;;;6.45;4.50;;;;;;;19.62;56.66;101465.41;6275228;22;20090;-75
2021/09/23 15:02:55;;;;;;;5.88;4.90;;;;;;;19.42;56.79;101460.06;6277158;22;20462;-75
2021/09/23 15:05:43;;;;;;;6.57;4.60;;;;;;;19.57;56.04;101459.41;6275386;22;20061;-76
2021/09/23 15:08:29;;;;;;;6.43;4.38;;;;;;;19.82;55.25;101452.13;6276904;22;20085;-75
2021/09/23 15:11:15;;;;;;;6.20;4.75;;;;;;;19.94;55.59;101448.06;6275928;22;20023;-75
2021/09/23 15:14:00;;;;;;;6.80;4.75;;;;;;;19.99;56.31;101444.25;6275422;22;20008;-75
2021/09/23 15:16:46;;;;;;;8.10;4.75;;;;;;;18.80;56.63;101448.44;6275744;22;20004;-76
2021/09/23 15:19:32;;;;;;;6.78;4.80;;;;;;;19.44;55.74;101452.88;6276015;22;20029;-76
2021/09/23 15:22:18;;;;;;;13.73;8.32;;;;;;;19.14;55.83;101440.84;6274538;22;20077;-75
2021/09/23 15:25:04;;;;;;;8.63;6.18;;;;;;;19.14;56.12;101444.34;6275380;22;20026;-75
2021/09/23 15:27:50;;;;;;;15.15;9.75;;;;;;;19.20;56.37;101445.91;6277847;22;20017;-75
2021/09/23 15:30:38;;;;;;;9.63;5.43;;;;;;;19.12;56.98;101442.69;6276208;22;20029;-75
2021/09/23 15:33:23;;;;;;;9.88;4.85;;;;;;;18.77;58.25;101440.63;6277418;22;20141;-77
2021/09/23 15:36:10;;;;;;;9.65;5.43;;;;;;;19.14;57.48;101444.34;6275485;22;20003;-76
2021/09/23 15:38:56;;;;;;;8.27;5.55;;;;;;;19.03;57.26;101443.06;6275911;22;20402;-76
2021/09/23 15:41:42;;;;;;;8.02;5.32;;;;;;;18.84;57.29;101436.75;6275123;22;20042;-76
2021/09/23 15:44:28;;;;;;;10.30;6.75;;;;;;;19.13;57.60;101441.78;6275341;22;20007;-76
2021/09/23 15:47:14;;;;;;;7.88;5.53;;;;;;;18.72;57.30;101442.56;6276509;22;20456;-76
2021/09/23 15:49:59;;;;;;;10.40;5.85;;;;;;;19.20;57.47;101438.81;6274845;22;20065;-76
2021/09/23 15:52:47;;;;;;;9.75;6.13;;;;;;;19.17;58.27;101443.41;6276869;22;20034;-76
2021/09/23 15:55:33;;;;;;;7.95;5.82;;;;;;;18.78;58.77;101445.00;6276627;22;20056;-75
2021/09/23 15:58:19;;;;;;;6.75;5.32;;;;;;;18.49;60.19;101435.50;6275472;22;20444;-76
2021/09/23 16:01:05;;;;;;;9.68;6.85;;;;;;;18.75;60.96;101445.09;6276874;22;20034;-75
2021/09/23 16:03:51;;;;;;;8.43;5.90;;;;;;;18.65;61.07;101433.97;6275810;22;20137;-75
2021/09/23 16:06:36;;;;;;;7.97;5.95;;;;;;;18.88;60.35;101433.94;6276097;22;20007;-75
2021/09/23 16:09:22;;;;;;;12.77;5.90;;;;;;;18.87;60.34;101434.88;6276238;22;20145;-75
2021/09/23 16:12:08;;;;;;;13.23;6.85;;;;;;;18.70;60.42;101433.81;6277197;22;20007;-75
2021/09/23 16:14:54;;;;;;;10.10;5.75;;;;;;;19.07;59.48;101432.28;6276042;22;20328;-76
2021/09/23 16:17:40;;;;;;;10.07;5.65;;;;;;;18.84;59.62;101423.50;6275695;22;20290;-76
2021/09/23 16:20:27;;;;;;;11.00;6.15;;;;;;;18.45;60.92;101422.41;6276349;22;20090;-76
2021/09/23 16:23:15;;;;;;;7.60;5.82;;;;;;;18.46;61.87;101422.38;6277456;22;20027;-76
2021/09/23 16:26:01;;;;;;;8.63;5.80;;;;;;;18.30;62.29;101420.31;6277142;22;20299;-75
2021/09/23 16:28:47;;;;;;;7.35;6.15;;;;;;;18.38;62.40;101412.97;6274224;22;20003;-76
2021/09/23 16:31:33;;;;;;;9.45;6.40;;;;;;;18.37;62.69;101417.38;6275233;22;20015;-76
2021/09/23 16:34:19;;;;;;;10.50;6.32;;;;;;;18.29;63.04;101413.28;6275464;22;20018;-76
2021/09/23 16:37:05;;;;;;;8.90;6.30;;;;;;;18.41;63.51;101410.19;6278928;22;20003;-76
2021/09/23 16:39:52;;;;;;;10.25;6.40;;;;;;;18.51;62.46;101403.59;6279213;22;20345;-77
2021/09/23 16:42:39;;;;;;;9.38;6.10;;;;;;;18.68;62.54;101409.09;6277116;22;20003;-76
2021/09/23 16:45:25;;;;;;;11.57;6.38;;;;;;;17.87;64.76;101405.13;6283830;22;20008;-75
2021/09/23 16:48:11;;;;;;;12.55;6.70;;;;;;;17.95;64.94;101408.38;6278631;22;20008;-75
2021/09/23 16:50:57;;;;;;;12.77;5.93;;;;;;;18.04;65.34;101417.75;6277548;22;20082;-76
2021/09/23 16:53:45;;;;;;;15.35;6.93;;;;;;;17.98;66.83;101420.66;6278409;22;20379;-73
2021/09/23 16:56:31;;;;;;;12.25;7.68;;;;;;;17.89;67.79;101416.53;6276809;22;20306;-72
2021/09/23 16:59:17;;;;;;;9.43;7.65;;;;;;;18.14;66.59;101421.81;6279433;22;20069;-73
2021/09/23 17:02:04;;;;;;;13.27;7.57;;;;;;;18.09;66.97;101426.44;6277069;22;20398;-72
2021/09/23 17:04:51;;;;;;;9.98;6.88;;;;;;;17.73;68.95;101428.59;6277556;22;20039;-75
2021/09/23 17:07:37;;;;;;;12.25;7.78;;;;;;;17.63;70.39;101432.50;6276906;22;20310;-75
2021/09/23 17:10:23;;;;;;;14.73;8.52;;;;;;;17.20;75.00;101439.28;6276784;22;20034;-76
2021/09/23 17:13:09;;;;;;;14.13;8.00;;;;;;;17.34;74.45;101431.75;6274912;22;20038;-76
2021/09/23 17:15:55;;;;;;;16.05;7.10;;;;;;;17.61;72.34;101431.69;6271376;22;20287;-76
2021/09/23 17:18:41;;;;;;;8.90;6.35;;;;;;;17.41;72.79;101439.44;6273198;22;20026;-76
2021/09/23 17:21:27;;;;;;;10.00;6.47;;;;;;;17.01;77.15;101438.16;6271626;22;20007;-76
2021/09/23 17:24:12;;;;;;;10.23;6.95;;;;;;;16.75;79.74;101444.28;6272032;22;20403;-75
2021/09/23 17:26:58;;;;;;;9.32;6.60;;;;;;;17.22;77.38;101450.69;6271188;22;20415;-75
2021/09/23 17:29:44;;;;;;;13.45;7.55;;;;;;;17.48;74.76;101454.22;6273355;22;20008;-75
2021/09/23 17:32:30;;;;;;;10.82;7.80;;;;;;;17.41;73.13;101462.44;6270281;22;20496;-75
2021/09/23 17:35:16;;;;;;;11.23;7.35;;;;;;;17.18;76.62;101457.88;6269651;22;20307;-75
2021/09/23 17:38:02;;;;;;;18.08;11.77;;;;;;;17.52;75.15;101453.22;6270504;22;20094;-76
2021/09/23 17:40:48;;;;;;;14.98;9.82;;;;;;;17.36;75.08;101459.06;6271369;22;20045;-78
2021/09/23 17:43:34;;;;;;;13.25;8.60;;;;;;;17.04;75.97;101456.59;6270651;22;20395;-75
2021/09/23 17:46:20;;;;;;;13.15;7.95;;;;;;;17.17;76.52;101455.28;6270695;22;20015;-77
2021/09/23 17:49:06;;;;;;;14.10;8.82;;;;;;;17.14;75.73;101453.59;6271738;22;20018;-75
2021/09/23 17:51:51;;;;;;;13.27;8.43;;;;;;;17.11;75.71;101442.22;6271089;22;20035;-75
2021/09/23 17:54:38;;;;;;;13.18;8.02;;;;;;;17.24;73.36;101446.22;6270074;22;20008;-78
2021/09/23 17:57:26;;;;;;;13.05;7.93;;;;;;;17.16;73.29;101450.91;6271807;22;20025;-77
2021/09/23 18:00:12;;;;;;;12.68;7.80;;;;;;;17.40;72.44;101455.38;6272873;22;20018;-75
2021/09/23 18:02:58;;;;;;;10.82;7.47;;;;;;;17.26;72.55;101450.56;6270336;22;20407;-77
2021/09/23 18:05:44;;;;;;;13.88;7.80;;;;;;;16.97;74.19;101450.63;6270602;22;20031;-76
2021/09/23 18:08:30;;;;;;;12.02;7.43;;;;;;;16.93;74.65;101450.78;6270768;22;20007;-76
2021/09/23 18:11:18;;;;;;;13.32;8.05;;;;;;;17.22;73.34;101453.34;6271397;22;20314;-76
2021/09/23 18:14:04;;;;;;;11.27;8.00;;;;;;;17.16;75.05;101465.00;6272218;22;20007;-78
2021/09/23 18:16:50;;;;;;;15.43;8.73;;;;;;;16.83;78.28;101457.25;6270663;22;20008;-79
2021/09/23 18:19:36;;;;;;;14.43;8.77;;;;;;;17.00;76.49;101454.97;6271108;22;20306;-80
2021/09/23 18:22:22;;;;;;;16.70;9.18;;;;;;;17.07;75.56;101460.00;6270469;22;20019;-76
2021/09/23 18:25:09;;;;;;;13.88;8.30;;;;;;;17.32;73.44;101465.38;6270281;22;20039;-79
2021/09/23 18:27:55;;;;;;;18.15;11.48;;;;;;;17.01;75.66;101467.28;6270854;22;20086;-78
2021/09/23 18:30:41;;;;;;;11.82;9.02;;;;;;;16.78;76.58;101473.28;6272279;22;20027;-78
2021/09/23 18:33:27;;;;;;;11.05;7.05;;;;;;;17.31;73.79;101476.88;6271386;22;20035;-78
2021/09/23 18:36:13;;;;;;;9.10;6.97;;;;;;;16.89;75.55;101470.31;6271667;22;20008;-77
2021/09/23 18:39:01;;;;;;;8.45;6.10;;;;;;;16.61;76.71;101472.06;6273461;22;20012;-78
2021/09/23 18:41:47;;;;;;;8.80;6.30;;;;;;;16.84;76.14;101473.09;6274393;22;20078;-77
2021/09/23 18:44:32;;;;;;;9.23;6.35;;;;;;;16.86;76.15;101465.09;6280264;22;20042;-78
2021/09/23 18:47:19;;;;;;;13.25;6.70;;;;;;;17.10;75.21;101467.84;6278016;22;20022;-76
2021/09/23 18:50:05;;;;;;;8.57;6.28;;;;;;;17.14;74.65;101469.50;6278983;22;20061;-77
2021/09/23 18:52:51;;;;;;;11.32;6.18;;;;;;;17.04;75.15;101475.13;6276553;22;20003;-77
2021/09/23 18:55:37;;;;;;;11.90;5.57;;;;;;;17.27;73.83;101470.81;6276112;22;20007;-77
2021/09/23 18:58:23;;;;;;;7.45;4.80;;;;;;;16.93;72.25;101467.53;6277285;22;20318;-76
2021/09/23 19:01:09;;;;;;;8.55;4.82;;;;;;;17.09;73.49;101470.53;6278508;22;19999;-76
2021/09/23 19:03:55;;;;;;;11.07;5.63;;;;;;;16.94;73.34;101463.97;6275997;22;20007;-78
2021/09/23 19:06:42;;;;;;;12.65;6.72;;;;;;;16.89;73.41;101465.00;6278026;22;20008;-76
2021/09/23 19:09:28;;;;;;;6.10;5.18;;;;;;;16.81;74.36;101454.69;6275707;22;20011;-77
2021/09/23 19:12:13;;;;;;;8.07;5.53;;;;;;;17.23;72.55;101455.06;6275947;22;20421;-77
2021/09/23 19:14:59;;;;;;;8.52;5.70;;;;;;;16.91;73.96;101455.22;6276434;22;20085;-77
2021/09/23 19:17:49;;;;;;;6.30;5.28;;;;;;;16.96;74.37;101453.31;6275165;22;20280;-77
2021/09/23 19:20:36;;;;;;;6.78;5.30;;;;;;;16.94;73.91;101455.13;6275571;22;20008;-77
2021/09/23 19:23:22;;;;;;;9.93;5.50;;;;;;;16.94;74.55;101460.44;6276727;22;20083;-77
2021/09/23 19:26:07;;;;;;;7.68;5.28;;;;;;;17.00;74.76;101462.91;6274879;22;20007;-77
2021/09/23 19:28:53;;;;;;;9.25;5.38;;;;;;;16.94;73.63;101463.09;6276231;22;20081;-77
2021/09/23 19:31:39;;;;;;;11.32;6.03;;;;;;;16.85;74.36;101456.31;6276797;22;20370;-77
2021/09/23 19:34:25;;;;;;;6.72;5.82;;;;;;;17.01;73.62;101452.28;6275375;22;20106;-77
2021/09/23 19:37:12;;;;;;;8.35;5.68;;;;;;;17.30;72.32;101448.66;6279490;22;20010;-77
2021/09/23 19:39:58;;;;;;;7.85;6.28;;;;;;;16.88;74.69;101452.72;6279159;22;20007;-77
2021/09/23 19:42:45;;;;;;;9.35;6.82;;;;;;;17.08;74.39;101452.94;6277240;22;20327;-77
2021/09/23 19:45:34;;;;;;;7.53;5.95;;;;;;;17.04;73.95;101453.94;6277171;22;20018;-77
2021/09/23 19:48:20;;;;;;;9.35;6.40;;;;;;;17.02;74.50;101455.75;6276962;22;20134;-77
2021/09/23 19:51:06;;;;;;;8.32;6.20;;;;;;;16.76;75.40;101458.38;6277130;22;20030;-77
2021/09/23 19:53:53;;;;;;;8.35;6.60;;;;;;;16.67;76.65;101459.50;6276820;22;20012;-77
2021/09/23 19:56:39;;;;;;;8.07;6.13;;;;;;;16.66;77.27;101455.16;6275808;22;20004;-78
2021/09/23 19:59:24;;;;;;;9.52;6.18;;;;;;;16.97;75.48;101463.88;6275125;22;20069;-77
2021/09/23 20:02:11;;;;;;;7.30;5.90;;;;;;;16.95;75.48;101463.03;6275529;22;20008;-76
2021/09/23 20:04:57;;;;;;;9.45;6.03;;;;;;;16.90;75.22;101466.75;6276872;22;20061;-75
2021/09/23 20:07:43;;;;;;;10.13;6.35;;;;;;;16.56;75.87;101464.25;6278278;22;20003;-76
2021/09/23 20:10:30;;;;;;;12.90;7.35;;;;;;;16.38;78.67;101472.72;6276667;22;20004;-76
2021/09/23 20:13:15;;;;;;;8.55;6.10;;;;;;;16.63;77.54;101470.25;6275767;22;20014;-77
2021/09/23 20:16:01;;;;;;;8.80;6.25;;;;;;;17.04;75.49;101464.53;6275796;22;20011;-76
2021/09/23 20:18:47;;;;;;;7.55;5.78;;;;;;;17.11;74.42;101461.63;6276975;22;20011;-77
2021/09/23 20:21:33;;;;;;;9.00;6.40;;;;;;;17.22;73.68;101463.94;6277108;22;20004;-77
2021/09/23 20:24:19;;;;;;;7.10;5.72;;;;;;;16.89;75.08;101468.53;6276699;22;20004;-77
2021/09/23 20:27:05;;;;;;;8.30;5.85;;;;;;;16.98;75.14;101460.31;6276779;22;20019;-76
2021/09/23 20:29:51;;;;;;;7.50;5.70;;;;;;;16.99;74.27;101466.44;6276378;22;20461;-77
2021/09/23 20:32:37;;;;;;;8.73;5.68;;;;;;;16.95;74.85;101462.16;6274853;22;20020;-77
2021/09/23 20:35:23;;;;;;;9.23;6.40;;;;;;;16.99;74.64;101462.03;6274832;22;20126;-77
2021/09/23 20:38:09;;;;;;;9.05;5.82;;;;;;;16.94;73.45;101460.44;6277714;22;20015;-77
2021/09/23 20:40:56;;;;;;;11.35;5.85;;;;;;;17.13;72.71;101456.28;6275401;22;20276;-76
2021/09/23 20:43:42;;;;;;;10.40;6.00;;;;;;;16.91;72.47;101452.59;6275872;22;20008;-77
2021/09/23 20:46:28;;;;;;;9.68;5.40;;;;;;;16.87;74.58;101453.59;6276639;22;20015;-77
2021/09/23 20:49:13;;;;;;;7.65;5.68;;;;;;;16.85;75.46;101452.78;6275717;22;20087;-77
2021/09/23 20:52:01;;;;;;;9.00;5.95;;;;;;;17.11;73.92;101453.69;6275967;22;20008;-77
2021/09/23 20:54:49;;;;;;;7.22;5.63;;;;;;;16.71;73.17;101439.09;6275387;22;20043;-76
2021/09/23 20:57:48;;;;;;;8.93;5.70;;;;;;;16.33;76.86;101444.66;6275549;22;20063;-78
2021/09/23 21:00:35;;;;;;;8.27;6.20;;;;;;;16.63;75.29;101449.94;6274222;22;20403;-77
2021/09/23 21:03:21;;;;;;;10.73;6.47;;;;;;;16.99;74.18;101451.44;6274099;22;20014;-75
2021/09/23 21:06:07;;;;;;;9.35;6.55;;;;;;;17.24;72.83;101459.47;6274616;22;20022;-75
2021/09/23 21:08:53;;;;;;;9.23;5.82;;;;;;;17.02;74.16;101450.47;6275329;22;20034;-74
2021/09/23 21:11:39;;;;;;;10.77;6.55;;;;;;;17.27;72.26;101457.56;6274465;22;20015;-75
2021/09/23 21:14:24;;;;;;;7.78;6.20;;;;;;;17.12;73.52;101449.28;6275852;22;20003;-75
2021/09/23 21:17:10;;;;;;;8.82;6.20;;;;;;;17.28;74.15;101450.50;6275037;22;20342;-76
2021/09/23 21:19:57;;;;;;;9.93;6.70;;;;;;;16.98;74.50;101451.47;6275098;22;20276;-75
2021/09/23 21:22:43;;;;;;;8.90;6.90;;;;;;;17.20;73.22;101452.53;6276679;22;20007;-75
2021/09/23 21:25:29;;;;;;;7.97;5.95;;;;;;;16.97;73.74;101455.06;6277590;22;20076;-74
2021/09/23 21:28:14;;;;;;;8.60;5.88;;;;;;;16.64;75.19;101441.06;6275720;22;20079;-76